Main page
METAR-TAF:

METAR-TAF

Airports :

Alicante, Spain

Alicante–Elche Airport

latitude: 38-17N, longitude: 000-33W, elevation: 43 m

Current weather observation

The report was made 25 minutes ago, at 03:30 UTC
Wind 1 kt from variable directions
Temperature 20°C
Humidity 83%
Pressure 1020 hPa
Visibility 10 km or more
no clouds below 1500 m and no cumulonimbus

METAR: LEAL 200330Z VRB01KT CAVOK 20/17 Q1020 NOSIG

Time: 05:55 (03:55 UTC)

Forecast

The report was made 4 hours and 55 minutes ago, at 23:00 UTC
Forecast valid from 20 at 00 UTC to 20 at 24 UTC
Wind 5 kt from the North
Visibility 10 km or more
Few clouds at a height of 1500 ft
Temporary
from 20 at 00 UTC to 20 at 12 UTC
Broken clouds at a height of 1400 ft
Becoming
from 20 at 08 UTC to 20 at 11 UTC
Wind 10 kt from the South/Southeast
Becoming
from 20 at 18 UTC to 20 at 21 UTC
Wind 3 kt from variable directions

TAF: LEAL 192300Z 2000/2024 35005KT 9999 FEW015 TX27/2012Z TN19/2006Z TEMPO 2000/2012 BKN014 BECMG 2008/2011 16010KT BECMG 2018/2021 VRB03KT

Weather observations and forecasts of more than 4000 airports (METAR and TAF reports).

The available stations are represented by yellow and red dots on the map.

Hover mouse over dot to see the name of the station.

Then click to see weather observations and forecasts.

To change the map : click on the green buttons with a black cross to zoom in, on the green button with a dash to zoom out, or on the green arrows for adjacent maps.


METAR-TAF: